createdAt,value
2018-07-31T00:01:44.076Z,7.25
2018-07-31T00:04:12.357Z,7.43
2018-07-31T00:06:53.401Z,7.28
2018-07-31T00:09:21.740Z,7.87
2018-07-31T00:12:02.015Z,7.10
2018-07-31T00:14:42.773Z,7.40
2018-07-31T00:17:23.472Z,7.28
2018-07-31T00:19:51.772Z,7.22
2018-07-31T00:22:33.050Z,7.65
2018-07-31T00:25:01.302Z,7.12
2018-07-31T00:27:42.249Z,7.60
2018-07-31T00:30:23.007Z,7.47
2018-07-31T00:32:51.334Z,7.90
2018-07-31T00:35:20.242Z,7.72
2018-07-31T00:38:01.293Z,7.70
2018-07-31T00:40:30.083Z,7.70
2018-07-31T00:42:58.284Z,8.10
2018-07-31T00:45:38.656Z,7.50
2018-07-31T00:48:06.857Z,7.33
2018-07-31T00:50:36.484Z,7.10
2018-07-31T00:53:16.880Z,7.65
2018-07-31T00:55:45.225Z,7.30
2018-07-31T00:58:25.636Z,7.22
2018-07-31T01:01:01.782Z,7.50
2018-07-31T01:03:30.147Z,7.65
2018-07-31T01:06:10.832Z,7.78
2018-07-31T01:08:39.042Z,7.53
2018-07-31T01:11:13.159Z,7.50
2018-07-31T01:13:54.027Z,8.00
2018-07-31T01:16:23.675Z,8.25
2018-07-31T01:18:52.040Z,7.62
2018-07-31T01:21:21.266Z,8.08
2018-07-31T01:24:01.984Z,8.18
2018-07-31T01:26:30.205Z,8.75
2018-07-31T01:29:10.471Z,7.85
2018-07-31T01:31:38.737Z,7.97
2018-07-31T01:34:18.837Z,8.50
2018-07-31T01:36:59.565Z,7.80
2018-07-31T01:39:40.376Z,8.10
2018-07-31T01:42:20.924Z,7.65
2018-07-31T01:45:01.595Z,8.45
2018-07-31T01:47:42.302Z,7.80
2018-07-31T01:50:23.073Z,7.77
2018-07-31T01:53:03.562Z,7.30
2018-07-31T01:55:44.337Z,7.42
2018-07-31T01:58:25.088Z,8.05
2018-07-31T02:01:05.852Z,7.55
2018-07-31T02:03:46.544Z,7.30
2018-07-31T02:06:28.137Z,7.92
2018-07-31T02:08:57.551Z,7.85
2018-07-31T02:11:38.733Z,7.80
2018-07-31T02:14:19.409Z,7.90
2018-07-31T02:17:00.074Z,7.10
2018-07-31T02:19:40.674Z,7.70
2018-07-31T02:22:21.308Z,8.28
2018-07-31T02:25:01.993Z,7.90
2018-07-31T02:27:30.219Z,7.30
2018-07-31T02:30:03.960Z,7.60
2018-07-31T02:32:44.384Z,7.80
2018-07-31T02:35:25.182Z,7.90
2018-07-31T02:38:05.746Z,8.10
2018-07-31T02:40:46.314Z,8.63
2018-07-31T02:43:14.640Z,7.72
2018-07-31T02:45:54.875Z,8.53
2018-07-31T02:48:35.548Z,8.25
2018-07-31T02:51:16.674Z,8.10
2018-07-31T02:53:44.892Z,7.95
2018-07-31T02:56:25.994Z,8.65
2018-07-31T02:58:57.615Z,8.03
2018-07-31T03:01:38.217Z,8.03
2018-07-31T03:04:18.853Z,8.00
2018-07-31T03:06:59.315Z,9.00
2018-07-31T03:09:33.918Z,8.80
2018-07-31T03:12:02.107Z,8.75
2018-07-31T03:14:42.253Z,7.85
2018-07-31T03:17:16.571Z,7.95
2018-07-31T03:19:56.768Z,8.28
2018-07-31T03:22:37.508Z,8.00
2018-07-31T03:25:18.252Z,7.95
2018-07-31T03:27:46.467Z,7.67
2018-07-31T03:30:14.676Z,8.80
2018-07-31T03:32:55.510Z,8.85
2018-07-31T03:35:23.781Z,9.03
2018-07-31T03:38:04.959Z,8.95
2018-07-31T03:40:45.633Z,7.72
2018-07-31T03:43:26.295Z,8.15
2018-07-31T03:46:06.960Z,9.33
2018-07-31T03:48:36.708Z,8.00
2018-07-31T03:51:17.453Z,8.90
2018-07-31T03:53:58.048Z,7.75
2018-07-31T03:56:31.500Z,8.80
2018-07-31T03:59:12.477Z,8.45
2018-07-31T04:01:40.701Z,9.05
2018-07-31T04:04:08.722Z,9.00
2018-07-31T04:06:41.338Z,9.00
2018-07-31T04:09:21.632Z,8.53
2018-07-31T04:12:02.221Z,9.08
2018-07-31T04:14:42.884Z,8.80
2018-07-31T04:17:11.162Z,8.30
2018-07-31T04:19:52.277Z,9.13
2018-07-31T04:22:22.448Z,9.45
2018-07-31T04:25:02.739Z,8.88
2018-07-31T04:27:43.534Z,9.00
2018-07-31T04:30:23.988Z,8.50
2018-07-31T04:33:04.782Z,11.73
2018-07-31T04:35:33.049Z,8.60
2018-07-31T04:38:13.209Z,9.43
2018-07-31T04:40:53.897Z,9.30
2018-07-31T04:43:34.542Z,8.90
2018-07-31T04:46:15.120Z,9.00
2018-07-31T04:48:55.811Z,9.00
2018-07-31T04:51:36.539Z,9.08
2018-07-31T04:54:04.768Z,8.40
2018-07-31T04:56:45.093Z,10.08
2018-07-31T04:59:13.282Z,8.98
2018-07-31T05:01:41.532Z,10.05
2018-07-31T05:04:09.788Z,9.60
2018-07-31T05:06:50.327Z,9.40
2018-07-31T05:09:18.572Z,9.37
2018-07-31T05:11:59.601Z,9.38
2018-07-31T05:14:40.239Z,9.55
2018-07-31T05:17:08.492Z,9.55
2018-07-31T05:19:36.829Z,9.93
2018-07-31T05:22:05.058Z,9.90
2018-07-31T05:24:33.581Z,9.83
2018-07-31T05:27:14.317Z,9.68
2018-07-31T05:29:54.993Z,9.30
2018-07-31T05:32:35.733Z,10.28
2018-07-31T05:35:16.236Z,8.95
2018-07-31T05:37:56.806Z,10.53
2018-07-31T05:40:37.585Z,10.48
2018-07-31T05:43:18.171Z,10.23
2018-07-31T05:45:59.308Z,10.13
2018-07-31T05:48:41.553Z,9.90
2018-07-31T05:51:22.255Z,10.65
2018-07-31T05:54:02.854Z,10.15
2018-07-31T05:56:31.124Z,10.33
2018-07-31T05:59:11.379Z,11.00
2018-07-31T06:01:52.099Z,10.40
2018-07-31T06:04:32.765Z,10.07
2018-07-31T06:07:13.429Z,10.18
2018-07-31T06:09:42.499Z,10.82
2018-07-31T06:12:23.675Z,9.40
2018-07-31T06:15:04.268Z,8.85
2018-07-31T06:17:32.482Z,9.20
2018-07-31T06:20:14.452Z,9.60
2018-07-31T06:22:55.539Z,9.98
2018-07-31T06:25:23.765Z,10.10
2018-07-31T06:28:04.623Z,9.68
2018-07-31T06:30:36.737Z,10.70
2018-07-31T06:33:17.489Z,9.98
2018-07-31T06:35:45.737Z,10.68
2018-07-31T06:38:14.008Z,9.88
2018-07-31T06:40:46.478Z,10.50
2018-07-31T06:43:16.214Z,10.80
2018-07-31T06:45:44.487Z,9.57
2018-07-31T06:48:15.927Z,10.03
2018-07-31T06:50:47.148Z,9.10
2018-07-31T06:53:15.467Z,10.48
2018-07-31T06:55:44.065Z,10.60
2018-07-31T06:58:12.343Z,10.93
2018-07-31T07:00:53.919Z,10.10
2018-07-31T07:03:28.562Z,10.60
2018-07-31T07:05:56.860Z,10.40
2018-07-31T07:08:25.170Z,10.55
2018-07-31T07:11:01.071Z,10.23
2018-07-31T07:13:42.275Z,10.25
2018-07-31T07:16:10.508Z,10.68
2018-07-31T07:18:50.765Z,11.30
2018-07-31T07:21:19.038Z,10.10
2018-07-31T07:23:59.264Z,9.93
2018-07-31T07:26:40.169Z,10.03
2018-07-31T07:29:13.433Z,9.30
2018-07-31T07:31:53.814Z,10.48
2018-07-31T07:34:34.616Z,10.68
2018-07-31T07:37:02.854Z,9.38
2018-07-31T07:39:44.023Z,10.00
2018-07-31T07:42:12.213Z,9.80
2018-07-31T07:44:40.437Z,9.90
2018-07-31T07:47:21.314Z,9.38
2018-07-31T07:50:02.098Z,9.75
2018-07-31T07:52:42.839Z,9.18
2018-07-31T07:55:23.508Z,9.40
2018-07-31T07:58:04.254Z,9.10
2018-07-31T08:00:44.838Z,8.93
2018-07-31T08:03:25.634Z,9.30
2018-07-31T08:06:06.360Z,9.20
2018-07-31T08:08:46.961Z,9.40
2018-07-31T08:11:20.632Z,9.43
2018-07-31T08:13:50.498Z,9.05
2018-07-31T08:16:24.844Z,8.83
2018-07-31T08:19:05.687Z,8.60
2018-07-31T08:21:47.741Z,8.60
2018-07-31T08:24:16.047Z,8.40
2018-07-31T08:26:56.967Z,8.40
2018-07-31T08:29:25.262Z,7.83
2018-07-31T08:32:06.393Z,8.43
2018-07-31T08:34:34.671Z,8.20
2018-07-31T08:37:15.177Z,8.90
2018-07-31T08:39:55.701Z,8.50
2018-07-31T08:42:27.996Z,7.78
2018-07-31T08:45:09.303Z,8.03
2018-07-31T08:47:37.583Z,9.77
2018-07-31T08:50:06.284Z,9.00
2018-07-31T08:52:47.228Z,8.30
2018-07-31T08:55:27.935Z,7.80
2018-07-31T08:57:56.219Z,7.67
2018-07-31T09:00:24.436Z,8.28
2018-07-31T09:03:04.870Z,8.38
2018-07-31T09:05:45.402Z,7.67
2018-07-31T09:08:26.027Z,8.70
2018-07-31T09:10:54.499Z,7.92
2018-07-31T09:13:35.429Z,8.60
2018-07-31T09:16:16.223Z,9.18
2018-07-31T09:18:56.933Z,8.15
2018-07-31T09:21:37.671Z,8.03
2018-07-31T09:24:05.944Z,8.15
2018-07-31T09:26:46.166Z,8.23
2018-07-31T09:29:14.409Z,7.35
2018-07-31T09:31:55.346Z,8.40
2018-07-31T09:34:23.559Z,7.97
2018-07-31T09:36:52.516Z,7.70
2018-07-31T09:39:33.616Z,7.35
2018-07-31T09:42:14.413Z,7.37
2018-07-31T09:44:42.619Z,6.80
2018-07-31T09:47:22.792Z,6.77
2018-07-31T09:50:03.493Z,6.97
2018-07-31T09:52:44.118Z,6.75
2018-07-31T09:55:15.421Z,6.83
2018-07-31T09:57:56.497Z,6.85
2018-07-31T10:00:42.644Z,6.90
2018-07-31T10:03:12.339Z,6.70
2018-07-31T10:05:53.478Z,7.12
2018-07-31T10:08:22.820Z,6.35
2018-07-31T10:11:03.168Z,5.90
2018-07-31T10:13:43.528Z,5.70
2018-07-31T10:16:12.003Z,6.53
2018-07-31T10:18:52.829Z,5.20
2018-07-31T10:21:33.382Z,4.90
2018-07-31T10:24:13.979Z,5.60
2018-07-31T10:26:44.209Z,5.20
2018-07-31T10:29:25.288Z,6.03
2018-07-31T10:32:05.900Z,5.53
2018-07-31T10:34:34.130Z,5.67
2018-07-31T10:37:14.506Z,5.90
2018-07-31T10:39:55.149Z,5.97
2018-07-31T10:42:35.705Z,5.40
2018-07-31T10:45:04.842Z,5.80
2018-07-31T10:47:33.748Z,5.70
2018-07-31T10:50:08.958Z,5.10
2018-07-31T10:52:40.685Z,4.62
2018-07-31T10:55:08.981Z,5.50
2018-07-31T10:57:37.218Z,5.30
2018-07-31T11:00:05.551Z,4.45
2018-07-31T11:02:46.537Z,4.30
2018-07-31T11:05:16.703Z,4.67
2018-07-31T11:07:45.449Z,4.55
2018-07-31T11:10:14.249Z,4.80
2018-07-31T11:12:55.248Z,4.10
2018-07-31T11:15:24.521Z,4.50
2018-07-31T11:17:53.024Z,4.05
2018-07-31T11:20:34.105Z,4.17
2018-07-31T11:23:02.384Z,4.55
2018-07-31T11:25:43.320Z,4.67
2018-07-31T11:28:23.706Z,3.80
2018-07-31T11:31:04.216Z,3.95
2018-07-31T11:33:37.487Z,4.70
2018-07-31T11:36:05.774Z,3.98
2018-07-31T11:38:39.002Z,4.10
2018-07-31T11:41:20.076Z,4.40
2018-07-31T11:43:48.309Z,4.10
2018-07-31T11:46:28.557Z,4.20
2018-07-31T11:49:09.187Z,4.00
2018-07-31T11:51:37.447Z,3.70
2018-07-31T11:54:10.072Z,3.83
2018-07-31T11:56:38.377Z,4.40
2018-07-31T11:59:18.807Z,4.70
2018-07-31T12:01:47.036Z,4.00
2018-07-31T12:04:15.619Z,4.67
2018-07-31T12:06:43.816Z,3.93
2018-07-31T12:09:24.504Z,4.23
2018-07-31T12:12:05.054Z,3.73
2018-07-31T12:14:33.302Z,4.30
2018-07-31T12:17:14.339Z,4.40
2018-07-31T12:19:55.074Z,3.93
2018-07-31T12:22:23.271Z,4.30
2018-07-31T12:24:53.416Z,3.77
2018-07-31T12:27:28.649Z,4.50
2018-07-31T12:30:08.974Z,4.77
2018-07-31T12:32:38.897Z,5.23
2018-07-31T12:35:12.690Z,4.73
2018-07-31T12:37:53.717Z,4.33
2018-07-31T12:40:21.976Z,5.13
2018-07-31T12:43:03.110Z,5.00
2018-07-31T12:45:43.701Z,4.47
2018-07-31T12:48:17.796Z,4.90
2018-07-31T12:50:58.906Z,4.70
2018-07-31T12:53:27.145Z,4.77
2018-07-31T12:56:08.209Z,5.37
2018-07-31T12:58:36.613Z,5.10
2018-07-31T13:01:04.871Z,5.27
2018-07-31T13:03:45.619Z,4.83
2018-07-31T13:06:26.099Z,5.80
2018-07-31T13:09:06.791Z,5.67
2018-07-31T13:11:35.708Z,4.80
2018-07-31T13:14:16.082Z,5.53
2018-07-31T13:16:56.916Z,5.03
2018-07-31T13:19:37.348Z,5.17
2018-07-31T13:22:11.705Z,5.23
2018-07-31T13:24:40.070Z,5.60
2018-07-31T13:27:21.133Z,5.03
2018-07-31T13:29:50.287Z,5.40
2018-07-31T13:32:19.010Z,5.30
2018-07-31T13:34:47.218Z,5.90
2018-07-31T13:37:17.148Z,5.37
2018-07-31T13:39:45.289Z,5.17
2018-07-31T13:42:13.520Z,5.57
2018-07-31T13:44:54.259Z,6.37
2018-07-31T13:47:34.916Z,5.37
2018-07-31T13:50:03.703Z,4.87
2018-07-31T13:52:44.279Z,5.20
2018-07-31T13:55:24.806Z,5.60
2018-07-31T13:58:05.304Z,5.97
2018-07-31T14:00:45.742Z,5.30
2018-07-31T14:03:26.434Z,4.90
2018-07-31T14:05:57.675Z,5.07
2018-07-31T14:08:37.838Z,5.20
2018-07-31T14:11:18.459Z,6.10
2018-07-31T14:13:46.700Z,5.90
2018-07-31T14:16:27.776Z,6.33
2018-07-31T14:19:08.259Z,5.43
2018-07-31T14:21:48.825Z,5.90
2018-07-31T14:24:30.062Z,4.97
2018-07-31T14:26:59.874Z,5.00
2018-07-31T14:29:28.066Z,5.43
2018-07-31T14:31:56.397Z,5.50
2018-07-31T14:34:37.225Z,5.70
2018-07-31T14:37:05.484Z,5.27
2018-07-31T14:39:33.777Z,5.57
2018-07-31T14:42:14.222Z,5.20
2018-07-31T14:44:51.814Z,5.97
2018-07-31T14:47:34.434Z,6.33
2018-07-31T14:50:03.408Z,6.10
2018-07-31T14:52:33.491Z,5.53
2018-07-31T14:55:01.762Z,5.60
2018-07-31T14:57:42.132Z,5.77
2018-07-31T15:00:10.834Z,6.07
2018-07-31T15:02:40.332Z,5.60
2018-07-31T15:05:08.562Z,6.23
2018-07-31T15:07:38.461Z,6.40
2018-07-31T15:10:07.800Z,6.50
2018-07-31T15:12:48.328Z,6.80
2018-07-31T15:15:18.341Z,6.60
2018-07-31T15:17:48.524Z,6.17
2018-07-31T15:20:30.068Z,6.23
2018-07-31T15:23:02.092Z,5.90
2018-07-31T15:25:40.343Z,6.50
2018-07-31T15:28:08.951Z,5.67
2018-07-31T15:30:38.428Z,5.40
2018-07-31T15:33:06.677Z,5.17
2018-07-31T15:35:47.665Z,5.60
2018-07-31T15:38:15.846Z,5.23
2018-07-31T15:40:45.169Z,5.50
2018-07-31T15:43:20.840Z,5.60
2018-07-31T15:45:51.069Z,6.00
2018-07-31T15:48:23.236Z,5.47
2018-07-31T15:50:51.463Z,5.70
2018-07-31T15:53:20.063Z,5.63
2018-07-31T15:55:54.480Z,6.13
2018-07-31T15:58:35.040Z,7.33
2018-07-31T16:01:04.301Z,7.40
2018-07-31T16:03:35.011Z,7.17
2018-07-31T16:06:03.617Z,6.63
2018-07-31T16:08:44.662Z,6.30
2018-07-31T16:11:12.972Z,7.07
2018-07-31T16:13:41.339Z,6.27
2018-07-31T16:16:15.157Z,6.60
2018-07-31T16:18:56.538Z,5.90
2018-07-31T16:21:24.763Z,6.20
2018-07-31T16:23:53.831Z,6.00
2018-07-31T16:26:23.482Z,10.20
2018-07-31T16:29:03.804Z,6.27
2018-07-31T16:31:44.480Z,6.03
2018-07-31T16:34:25.185Z,6.17
2018-07-31T16:36:54.767Z,6.47
2018-07-31T16:39:35.233Z,6.23
2018-07-31T16:42:15.727Z,5.43
2018-07-31T16:44:45.893Z,5.97
2018-07-31T16:47:26.895Z,6.07
2018-07-31T16:49:55.868Z,7.20
2018-07-31T16:52:36.398Z,6.63
2018-07-31T16:55:05.086Z,6.03
2018-07-31T16:57:47.309Z,6.80
2018-07-31T17:00:15.693Z,6.80
2018-07-31T17:02:44.747Z,5.80
2018-07-31T17:05:25.427Z,7.20
2018-07-31T17:08:05.883Z,6.67
2018-07-31T17:10:46.383Z,6.30
2018-07-31T17:13:14.673Z,6.53
2018-07-31T17:15:43.030Z,6.73
2018-07-31T17:18:23.648Z,6.67
2018-07-31T17:20:52.066Z,7.17
2018-07-31T17:23:32.766Z,6.77
2018-07-31T17:26:02.009Z,7.57
2018-07-31T17:28:43.775Z,8.27
2018-07-31T17:31:18.592Z,8.00
2018-07-31T17:33:46.865Z,6.70
2018-07-31T17:36:16.485Z,9.10
2018-07-31T17:38:50.434Z,8.33
2018-07-31T17:41:18.694Z,6.43
2018-07-31T17:43:59.046Z,7.17
2018-07-31T17:46:28.267Z,6.87
2018-07-31T17:49:09.269Z,7.10
2018-07-31T17:51:49.858Z,7.70
2018-07-31T17:54:18.096Z,7.83
2018-07-31T17:56:46.556Z,6.90
2018-07-31T17:59:14.727Z,7.10
2018-07-31T18:01:45.100Z,7.50
2018-07-31T18:04:25.553Z,8.10
2018-07-31T18:07:06.069Z,7.40
2018-07-31T18:09:47.628Z,8.17
2018-07-31T18:12:16.228Z,6.73
2018-07-31T18:14:57.044Z,8.10
2018-07-31T18:17:41.160Z,7.17
2018-07-31T18:20:22.293Z,6.90
2018-07-31T18:23:02.804Z,8.30
2018-07-31T18:25:44.662Z,6.80
2018-07-31T18:28:25.018Z,7.13
2018-07-31T18:31:05.732Z,7.13
2018-07-31T18:33:46.277Z,7.50
2018-07-31T18:36:27.034Z,8.60
2018-07-31T18:39:07.796Z,7.23
2018-07-31T18:41:48.222Z,8.63
2018-07-31T18:44:28.834Z,7.77
2018-07-31T18:47:09.644Z,7.20
2018-07-31T18:49:50.120Z,7.93
2018-07-31T18:52:30.891Z,8.67
2018-07-31T18:54:59.268Z,9.00
2018-07-31T18:57:40.201Z,9.30
2018-07-31T19:00:20.733Z,8.90
2018-07-31T19:02:49.087Z,8.90
2018-07-31T19:05:30.140Z,9.90
2018-07-31T19:08:00.465Z,9.77
2018-07-31T19:10:41.342Z,11.60
2018-07-31T19:13:10.606Z,10.97
2018-07-31T19:15:41.621Z,10.93
2018-07-31T19:18:10.068Z,9.37
2018-07-31T19:20:38.779Z,9.40
2018-07-31T19:23:19.854Z,9.00
2018-07-31T19:26:01.487Z,9.50
2018-07-31T19:28:42.082Z,9.93
2018-07-31T19:31:10.404Z,9.83
2018-07-31T19:33:51.560Z,12.43
2018-07-31T19:36:31.902Z,10.60
2018-07-31T19:39:00.943Z,10.80
2018-07-31T19:41:29.386Z,11.60
2018-07-31T19:43:58.331Z,10.93
2018-07-31T19:46:30.450Z,11.43
2018-07-31T19:48:58.785Z,11.13
2018-07-31T19:51:32.863Z,9.70
2018-07-31T19:54:01.780Z,9.57
2018-07-31T19:56:30.217Z,11.17
2018-07-31T19:58:58.528Z,9.50
2018-07-31T20:01:26.778Z,9.83
2018-07-31T20:04:07.742Z,10.80
2018-07-31T20:06:37.521Z,9.93
2018-07-31T20:09:24.756Z,9.93
2018-07-31T20:11:53.271Z,9.80
2018-07-31T20:14:21.866Z,9.70
2018-07-31T20:16:51.119Z,10.30
2018-07-31T20:19:19.424Z,10.30
2018-07-31T20:21:50.659Z,11.30
2018-07-31T20:24:23.389Z,11.07
2018-07-31T20:26:51.661Z,10.87
2018-07-31T20:29:32.265Z,8.23
2018-07-31T20:32:09.936Z,9.93
2018-07-31T20:34:38.223Z,10.53
2018-07-31T20:37:06.824Z,10.60
2018-07-31T20:39:35.085Z,10.43
2018-07-31T20:42:03.846Z,9.28
2018-07-31T20:44:32.333Z,10.15
2018-07-31T20:47:00.707Z,10.90
2018-07-31T20:49:41.675Z,11.05
2018-07-31T20:52:10.949Z,10.10
2018-07-31T20:54:39.220Z,11.30
2018-07-31T20:57:07.476Z,10.25
2018-07-31T20:59:35.680Z,10.55
2018-07-31T21:02:15.946Z,10.35
2018-07-31T21:04:56.536Z,11.55
2018-07-31T21:07:37.097Z,10.23
2018-07-31T21:10:05.444Z,9.80
2018-07-31T21:12:46.632Z,10.72
2018-07-31T21:15:27.207Z,10.28
2018-07-31T21:17:55.502Z,10.05
2018-07-31T21:20:36.603Z,9.75
2018-07-31T21:24:34.157Z,9.45
2018-07-31T21:27:02.578Z,40.78
2018-07-31T21:29:43.210Z,17.27
2018-07-31T21:32:11.442Z,13.75
2018-07-31T21:34:39.714Z,11.00
2018-07-31T21:37:20.748Z,11.65
2018-07-31T21:39:49.006Z,10.70
2018-07-31T21:42:29.223Z,9.85
2018-07-31T21:44:57.457Z,10.90
2018-07-31T21:47:25.714Z,10.70
2018-07-31T21:50:06.559Z,11.25
2018-07-31T21:52:41.074Z,11.45
2018-07-31T21:55:10.074Z,11.75
2018-07-31T21:57:50.286Z,12.75
2018-07-31T22:00:18.658Z,11.83
2018-07-31T22:02:59.397Z,11.22
2018-07-31T22:05:39.950Z,12.45
2018-07-31T22:08:20.501Z,30.32
2018-07-31T22:11:01.155Z,11.10
2018-07-31T22:13:35.429Z,11.95
2018-07-31T22:16:03.996Z,12.80
2018-07-31T22:18:33.968Z,11.85
2018-07-31T22:21:06.343Z,11.97
2018-07-31T22:23:47.538Z,12.65
2018-07-31T22:26:17.001Z,12.23
2018-07-31T22:28:57.734Z,12.90
2018-07-31T22:31:38.246Z,13.03
2018-07-31T22:34:10.693Z,12.45
2018-07-31T22:36:50.950Z,12.90
2018-07-31T22:39:31.545Z,12.88
2018-07-31T22:42:12.132Z,12.03
2018-07-31T22:44:53.026Z,11.88
2018-07-31T22:47:22.206Z,12.60
2018-07-31T22:49:50.617Z,12.98
2018-07-31T22:52:18.884Z,12.33
2018-07-31T22:54:47.093Z,13.55
2018-07-31T22:57:28.002Z,11.73
2018-07-31T23:00:08.675Z,12.68
2018-07-31T23:02:49.252Z,12.82
2018-07-31T23:05:29.758Z,13.03
2018-07-31T23:07:58.041Z,14.40
2018-07-31T23:10:32.612Z,13.28
2018-07-31T23:13:04.781Z,12.25
2018-07-31T23:15:45.408Z,13.88
2018-07-31T23:18:25.987Z,12.90
2018-07-31T23:20:56.426Z,12.18
2018-07-31T23:23:26.898Z,14.25
2018-07-31T23:25:57.140Z,13.78
2018-07-31T23:28:37.743Z,13.03
2018-07-31T23:31:18.303Z,13.45
2018-07-31T23:33:47.305Z,13.55
2018-07-31T23:36:27.493Z,13.45
2018-07-31T23:39:08.075Z,13.83
2018-07-31T23:41:48.527Z,13.78
2018-07-31T23:44:16.742Z,13.08
2018-07-31T23:46:45.003Z,13.35
2018-07-31T23:49:25.870Z,13.50
2018-07-31T23:52:06.234Z,13.95
2018-07-31T23:54:34.612Z,14.45
2018-07-31T23:57:02.933Z,13.15
2018-07-31T23:59:31.182Z,13.55
